This is the latest recevied weather packets stored in our database for station/object KJ6LNH-1. If no packets are shown the sender has not sent any weather packets the latest 10 day(s).
| Time | Temp. | Humidity | Pressure | Rain* | Wind** | Luminosity | Snow |
|---|---|---|---|---|---|---|---|
| 1787479807 | 17.22° C | 67% | 1011.2 hPa | 0 mm | - | - | - |
| 1787479506 | 17.22° C | 66% | 1011.3 hPa | 0 mm | - | - | - |
| 1787479227 | 17.22° C | 65% | 1011.3 hPa | 0 mm | - | - | - |
| 1787478606 | 17.78° C | 62% | 1011.4 hPa | 0 mm | - | - | - |
| 1787478306 | 18.33° C | 59% | 1011.4 hPa | 0 mm | - | - | - |
| 1787478006 | 19.44° C | 56% | 1011.5 hPa | 0 mm | - | - | - |
| 1787477406 | 20° C | 51% | 1011.6 hPa | 0 mm | - | - | - |
| 1787477106 | 20.56° C | 51% | 1011.6 hPa | 0 mm | - | - | - |
| 1787476806 | 20° C | 51% | 1011.6 hPa | 0 mm | - | - | - |
| 1787476507 | 20° C | 51% | 1011.6 hPa | 0 mm | - | - | - |
| 1787476206 | 20° C | 53% | 1011.7 hPa | 0 mm | - | - | - |
| 1787475907 | 20° C | 53% | 1011.8 hPa | 0 mm | - | - | - |
| 1787475606 | 20° C | 53% | 1011.8 hPa | 0 mm | - | - | - |
| 1787475306 | 19.44° C | 56% | 1011.8 hPa | 0 mm | - | - | - |
| 1787475006 | 19.44° C | 57% | 1011.8 hPa | 0 mm | - | - | - |
| 1787474706 | 19.44° C | 55% | 1011.8 hPa | 0 mm | - | - | - |
| 1787474406 | 20.56° C | 51% | 1011.8 hPa | 0 mm | - | - | - |
| 1787474107 | 20.56° C | 52% | 1011.9 hPa | 0 mm | - | - | - |
| 1787473806 | 20.56° C | 52% | 1012 hPa | 0 mm | - | - | - |
| 1787473506 | 20° C | 53% | 1012 hPa | 0 mm | - | - | - |
| 1787473206 | 20° C | 53% | 1012.1 hPa | 0 mm | - | - | - |
| 1787472907 | 20° C | 54% | 1012 hPa | 0 mm | - | - | - |
| 1787472606 | 20° C | 55% | 1012.1 hPa | 0 mm | - | - | - |
| 1787472306 | 20° C | 54% | 1012.2 hPa | 0 mm | - | - | - |
| 1787472006 | 20.56° C | 52% | 1012.2 hPa | 0 mm | - | - | - |
* Rain latest hour (hover to see other rain measurements)
** Current wind speed in m/s (hover to see current wind gust speed)